Главная страница
METAR-TAF:

METAR-TAF

Аэропорты :

Эсбьерг, Дания

широта: 55-32N, долгота: 008-34E, высота над уровнем моря: 30 м

Текущие метеонаблюдения

Эта сводка был подготовлена 16 минут назад, в 12:20 UTC
Ветер 7 Узел от юго-восточный
Температура 3°C
Влажность 93%
Давление 1009 hPa
Видимость: 5000 м
небольшой дождь

METAR: EKEB 191220Z AUTO 14007KT 5000 -RA OVC007/// 03/02 Q1009

Время: 13:36 (12:36 UTC)

Прогноз

Эта сводка был подготовлена 1 час и 19 минут назад, в 11:17 UTC
Прогноз действительный с 19-го 12 UTC до 19-го 21 UTC
Ветер 10 Узел от юго-восточный
Видимость: 8000 м
Рассеянная облачность на высоте 1200 фута
небольшой дождь
изменения
С 19-го 12 UTC до 19-го 14 UTC
Видимость: 4000 м
Рассеянная облачность на высоте 600 фута
дождь, Морось
временами
С 19-го 14 UTC до 19-го 21 UTC
Видимость: 2000 м
Рассеянная облачность на высоте 300 фута
небольшой дождь, дымка

TAF: EKEB 191117Z 1912/1921 14010KT 8000 -RA BKN012 BECMG 1912/1914 4000 RADZ BKN006 TEMPO 1914/1921 2000 -RA BR BKN003

Метеонаблюдения и прогнозы для более 4000 аэропортов (сводки METAR и TAF).

Имеющиеся станции представлены на карте желтыми и красными точками.

Чтобы увидеть название станции, наведите на нее мышь.

Затем щелкните, чтобы увидеть метеонаблюдения и метеопрогнозы.

Управление картой: чтобы увеличить масштаб, щелкните зеленые кнопки с черным крестиком; чтобы уменьшить масштаб, щелкните зеленую кнопку с тире; для просмотра соседних карт щелкайте зеленые стрелки.


METAR-TAF: